createdAt,value
2022-11-16T00:00:21.875Z,9.40
2022-11-16T00:01:26.970Z,9.38
2022-11-16T00:02:29.253Z,9.35
2022-11-16T00:03:32.931Z,9.33
2022-11-16T00:04:35.143Z,9.31
2022-11-16T00:05:38.230Z,9.29
2022-11-16T00:06:40.571Z,9.27
2022-11-16T00:07:43.712Z,9.25
2022-11-16T00:09:08.751Z,9.23
2022-11-16T00:10:13.757Z,9.20
2022-11-16T00:11:18.975Z,9.19
2022-11-16T00:12:22.070Z,9.17
2022-11-16T00:13:24.065Z,9.14
2022-11-16T00:14:29.017Z,9.13
2022-11-16T00:15:31.026Z,9.10
2022-11-16T00:16:34.776Z,9.09
2022-11-16T00:17:36.803Z,9.06
2022-11-16T00:18:39.866Z,9.03
2022-11-16T00:19:41.946Z,9.02
2022-11-16T00:20:45.638Z,9.01
2022-11-16T00:21:47.827Z,8.99
2022-11-16T00:22:51.016Z,8.97
2022-11-16T00:23:53.266Z,8.96
2022-11-16T00:24:56.301Z,8.95
2022-11-16T00:26:04.925Z,8.93
2022-11-16T00:27:08.043Z,8.92
2022-11-16T00:28:10.743Z,8.90
2022-11-16T00:29:16.020Z,8.89
2022-11-16T00:30:19.264Z,8.88
2022-11-16T00:31:21.937Z,8.86
2022-11-16T00:32:24.976Z,8.85
2022-11-16T00:33:27.647Z,8.84
2022-11-16T00:34:30.986Z,8.83
2022-11-16T00:35:38.811Z,8.79
2022-11-16T00:36:42.141Z,8.81
2022-11-16T00:37:44.300Z,8.80
2022-11-16T00:38:47.481Z,8.80
2022-11-16T00:39:49.478Z,8.79
2022-11-16T00:40:52.669Z,8.78
2022-11-16T00:41:56.183Z,8.77
2022-11-16T00:42:59.225Z,8.77
2022-11-16T00:44:01.253Z,8.75
2022-11-16T00:45:04.487Z,8.74
2022-11-16T00:46:06.668Z,8.72
2022-11-16T00:47:09.979Z,8.71
2022-11-16T00:48:12.282Z,8.71
2022-11-16T00:49:16.135Z,8.70
2022-11-16T00:50:18.297Z,8.69
2022-11-16T00:51:21.290Z,8.68
2022-11-16T00:52:23.520Z,8.68
2022-11-16T00:53:26.632Z,8.67
2022-11-16T00:54:29.193Z,8.67
2022-11-16T00:55:32.343Z,8.65
2022-11-16T00:56:35.220Z,8.64
2022-11-16T00:57:39.713Z,8.63
2022-11-16T00:58:47.785Z,8.63
2022-11-16T00:59:50.988Z,8.63
2022-11-16T01:00:53.685Z,8.62
2022-11-16T01:01:57.003Z,8.61
2022-11-16T01:02:59.169Z,8.61
2022-11-16T01:04:02.406Z,8.60
2022-11-16T01:05:05.296Z,8.60
2022-11-16T01:06:11.064Z,8.59
2022-11-16T01:07:13.568Z,8.58
2022-11-16T01:08:17.208Z,8.57
2022-11-16T01:09:19.376Z,8.56
2022-11-16T01:10:26.122Z,8.54
2022-11-16T01:11:46.587Z,8.54
2022-11-16T01:12:51.746Z,8.52
2022-11-16T01:13:54.615Z,8.52
2022-11-16T01:14:58.033Z,8.51
2022-11-16T01:16:00.179Z,8.48
2022-11-16T01:17:03.413Z,8.48
2022-11-16T01:18:05.766Z,8.47
2022-11-16T01:19:09.352Z,8.45
2022-11-16T01:20:14.467Z,8.42
2022-11-16T01:21:17.995Z,8.43
2022-11-16T01:22:20.232Z,8.41
2022-11-16T01:23:23.517Z,8.42
2022-11-16T01:24:27.470Z,8.37
2022-11-16T01:25:30.648Z,8.38
2022-11-16T01:26:32.818Z,8.38
2022-11-16T01:27:36.179Z,8.36
2022-11-16T01:28:41.222Z,8.35
2022-11-16T01:29:45.393Z,8.32
2022-11-16T01:30:48.442Z,8.33
2022-11-16T01:31:51.601Z,8.31
2022-11-16T01:32:53.750Z,8.30
2022-11-16T01:33:57.061Z,8.29
2022-11-16T01:35:03.364Z,8.29
2022-11-16T01:36:14.677Z,8.24
2022-11-16T01:37:18.632Z,8.26
2022-11-16T01:38:23.882Z,8.24
2022-11-16T01:39:29.225Z,8.23
2022-11-16T01:40:37.018Z,8.23
2022-11-16T01:41:40.479Z,8.22
2022-11-16T01:42:42.664Z,8.20
2022-11-16T01:43:58.838Z,8.21
2022-11-16T01:45:16.686Z,8.20
2022-11-16T01:46:20.512Z,8.16
2022-11-16T01:47:23.015Z,8.20
2022-11-16T01:48:29.177Z,8.19
2022-11-16T01:49:35.095Z,8.18
2022-11-16T01:50:39.561Z,8.17
2022-11-16T01:51:46.578Z,8.16
2022-11-16T01:52:55.335Z,8.15
2022-11-16T01:54:01.660Z,8.11
2022-11-16T01:55:05.751Z,8.12
2022-11-16T01:56:21.586Z,8.09
2022-11-16T01:57:45.364Z,8.07
2022-11-16T01:58:49.095Z,8.06
2022-11-16T02:00:01.628Z,8.04
2022-11-16T02:01:17.003Z,8.03
2022-11-16T02:02:24.726Z,8.03
2022-11-16T02:03:28.128Z,8.02
2022-11-16T02:04:31.069Z,8.00
2022-11-16T02:05:45.556Z,8.00
2022-11-16T02:07:01.015Z,7.98
2022-11-16T02:08:38.436Z,7.97
2022-11-16T02:09:56.011Z,7.96
2022-11-16T02:11:24.173Z,7.85
2022-11-16T02:13:05.394Z,7.92
2022-11-16T02:14:25.963Z,7.89
2022-11-16T02:15:35.691Z,7.87
2022-11-16T02:16:58.012Z,7.85
2022-11-16T02:18:20.178Z,7.86
2022-11-16T02:19:50.090Z,7.84
2022-11-16T02:21:01.411Z,7.83
2022-11-16T02:22:13.340Z,7.82
2022-11-16T02:23:50.219Z,7.80
2022-11-16T02:25:03.615Z,7.78
2022-11-16T02:26:21.401Z,7.78
2022-11-16T02:27:57.604Z,7.77
2022-11-16T02:29:22.084Z,7.75
2022-11-16T02:30:25.441Z,7.74
2022-11-16T02:31:36.986Z,7.72
2022-11-16T02:32:45.168Z,7.72
2022-11-16T02:33:50.147Z,7.73
2022-11-16T02:34:58.072Z,7.71
2022-11-16T02:36:02.762Z,7.71
2022-11-16T02:37:08.166Z,7.70
2022-11-16T02:38:13.906Z,7.69
2022-11-16T02:39:22.368Z,7.69
2022-11-16T02:40:31.614Z,7.68
2022-11-16T02:41:39.608Z,7.68
2022-11-16T02:42:46.571Z,7.68
2022-11-16T02:43:54.850Z,7.67
2022-11-16T02:45:01.369Z,7.68
2022-11-16T02:46:08.546Z,7.67
2022-11-16T02:47:18.094Z,7.66
2022-11-16T02:48:26.380Z,7.67
2022-11-16T02:49:32.399Z,7.66
2022-11-16T02:50:36.294Z,7.66
2022-11-16T02:51:41.096Z,7.67
2022-11-16T02:52:43.246Z,7.65
2022-11-16T02:54:00.242Z,7.65
2022-11-16T02:55:03.214Z,7.65
2022-11-16T02:56:07.051Z,7.65
2022-11-16T02:57:40.720Z,7.65
2022-11-16T02:58:48.954Z,7.64
2022-11-16T02:59:57.402Z,7.64
2022-11-16T03:01:09.548Z,7.64
2022-11-16T03:02:23.804Z,7.63
2022-11-16T03:03:31.948Z,7.61
2022-11-16T03:04:39.963Z,7.61
2022-11-16T03:05:49.608Z,7.59
2022-11-16T03:06:56.373Z,7.59
2022-11-16T03:08:07.519Z,7.59
2022-11-16T03:09:16.979Z,7.60
2022-11-16T03:10:36.814Z,7.59
2022-11-16T03:12:01.584Z,7.59
2022-11-16T03:13:12.200Z,7.59
2022-11-16T03:14:18.862Z,7.59
2022-11-16T03:15:22.235Z,7.59
2022-11-16T03:16:30.030Z,7.59
2022-11-16T03:17:39.393Z,7.57
2022-11-16T03:18:43.637Z,7.58
2022-11-16T03:19:55.203Z,7.58
2022-11-16T03:21:05.816Z,7.58
2022-11-16T03:22:15.630Z,7.54
2022-11-16T03:23:18.823Z,7.57
2022-11-16T03:24:23.393Z,7.56
2022-11-16T03:25:29.677Z,7.56
2022-11-16T03:26:38.847Z,7.56
2022-11-16T03:27:47.104Z,7.55
2022-11-16T03:28:56.278Z,7.55
2022-11-16T03:30:04.738Z,7.54
2022-11-16T03:31:14.582Z,7.54
2022-11-16T03:32:23.133Z,7.55
2022-11-16T03:33:32.022Z,7.56
2022-11-16T03:34:37.799Z,7.57
2022-11-16T03:35:49.483Z,7.58
2022-11-16T03:36:55.024Z,7.60
2022-11-16T03:38:01.070Z,7.61
2022-11-16T03:39:10.482Z,7.62
2022-11-16T03:40:15.596Z,7.63
2022-11-16T03:41:21.017Z,7.63
2022-11-16T03:42:26.827Z,7.64
2022-11-16T03:43:31.113Z,7.66
2022-11-16T03:44:36.225Z,7.65
2022-11-16T03:45:41.601Z,7.65
2022-11-16T03:46:46.992Z,7.65
2022-11-16T03:47:52.012Z,7.66
2022-11-16T03:48:58.989Z,7.66
2022-11-16T03:50:05.363Z,7.65
2022-11-16T03:51:10.997Z,7.65
2022-11-16T03:52:16.410Z,7.65
2022-11-16T03:53:19.967Z,7.66
2022-11-16T03:54:22.427Z,7.64
2022-11-16T03:55:25.961Z,7.65
2022-11-16T03:56:28.677Z,7.64
2022-11-16T03:57:32.960Z,7.64
2022-11-16T03:58:35.658Z,7.63
2022-11-16T03:59:39.126Z,7.63
2022-11-16T04:00:41.370Z,7.61
2022-11-16T04:01:47.120Z,7.61
2022-11-16T04:02:51.560Z,7.61
2022-11-16T04:03:57.505Z,7.61
2022-11-16T04:05:18.219Z,7.60
2022-11-16T04:06:39.206Z,7.60
2022-11-16T04:07:59.787Z,7.60
2022-11-16T04:09:20.637Z,7.61
2022-11-16T04:10:41.224Z,7.62
2022-11-16T04:12:01.630Z,7.63
2022-11-16T04:13:23.076Z,7.62
2022-11-16T04:14:46.275Z,7.62
2022-11-16T04:16:09.828Z,7.62
2022-11-16T04:17:32.039Z,7.62
2022-11-16T04:19:09.095Z,7.61
2022-11-16T04:20:31.527Z,7.62
2022-11-16T04:21:57.865Z,7.62
2022-11-16T04:23:27.397Z,7.61
2022-11-16T04:24:33.753Z,7.58
2022-11-16T04:25:40.380Z,7.60
2022-11-16T04:27:11.331Z,7.59
2022-11-16T04:28:17.532Z,7.58
2022-11-16T04:29:24.941Z,7.58
2022-11-16T04:30:48.439Z,7.59
2022-11-16T04:32:09.075Z,7.57
2022-11-16T04:33:32.198Z,7.58
2022-11-16T04:34:55.138Z,7.56
2022-11-16T04:36:20.448Z,7.56
2022-11-16T04:37:41.848Z,7.56
2022-11-16T04:38:45.052Z,7.54
2022-11-16T04:39:48.532Z,7.54
2022-11-16T04:40:51.981Z,7.52
2022-11-16T04:42:15.461Z,7.52
2022-11-16T04:43:20.639Z,7.51
2022-11-16T04:44:27.284Z,7.51
2022-11-16T04:45:50.411Z,7.50
2022-11-16T04:47:06.809Z,7.52
2022-11-16T04:48:12.280Z,7.53
2022-11-16T04:49:15.389Z,7.54
2022-11-16T04:50:20.907Z,7.53
2022-11-16T04:51:24.602Z,7.52
2022-11-16T04:52:27.828Z,7.53
2022-11-16T04:53:31.239Z,7.52
2022-11-16T04:54:41.200Z,7.52
2022-11-16T04:55:45.203Z,7.52
2022-11-16T04:56:48.994Z,7.51
2022-11-16T04:57:52.573Z,7.50
2022-11-16T04:58:55.395Z,7.51
2022-11-16T04:59:58.682Z,7.51
2022-11-16T05:01:00.879Z,7.51
2022-11-16T05:02:10.972Z,7.51
2022-11-16T05:03:46.572Z,7.51
2022-11-16T05:04:49.008Z,7.51
2022-11-16T05:05:54.357Z,7.51
2022-11-16T05:06:56.639Z,7.50
2022-11-16T05:07:59.881Z,7.51
2022-11-16T05:09:04.501Z,7.52
2022-11-16T05:10:08.829Z,7.54
2022-11-16T05:11:11.019Z,7.54
2022-11-16T05:12:16.590Z,7.52
2022-11-16T05:13:20.741Z,7.56
2022-11-16T05:14:25.398Z,7.56
2022-11-16T05:15:28.246Z,7.56
2022-11-16T05:16:32.668Z,7.57
2022-11-16T05:17:35.549Z,7.56
2022-11-16T05:18:41.532Z,7.55
2022-11-16T05:20:02.511Z,7.55
2022-11-16T05:21:10.931Z,7.52
2022-11-16T05:22:13.828Z,7.52
2022-11-16T05:23:30.922Z,7.51
2022-11-16T05:24:39.276Z,7.51
2022-11-16T05:25:41.833Z,7.49
2022-11-16T05:26:47.124Z,7.50
2022-11-16T05:27:50.780Z,7.48
2022-11-16T05:28:52.946Z,7.48
2022-11-16T05:29:57.437Z,7.46
2022-11-16T05:30:59.597Z,7.45
2022-11-16T05:32:06.101Z,7.44
2022-11-16T05:33:08.475Z,7.43
2022-11-16T05:34:15.841Z,7.42
2022-11-16T05:35:19.167Z,7.40
2022-11-16T05:36:23.692Z,7.38
2022-11-16T05:37:27.267Z,7.37
2022-11-16T05:38:29.513Z,7.35
2022-11-16T05:39:35.137Z,7.35
2022-11-16T05:40:37.299Z,7.33
2022-11-16T05:41:40.415Z,7.32
2022-11-16T05:42:42.638Z,7.30
2022-11-16T05:43:45.846Z,7.29
2022-11-16T05:44:58.516Z,7.29
2022-11-16T05:46:00.995Z,7.28
2022-11-16T05:47:04.187Z,7.27
2022-11-16T05:48:06.684Z,7.27
2022-11-16T05:49:10.099Z,7.28
2022-11-16T05:50:13.317Z,7.25
2022-11-16T05:51:17.336Z,7.25
2022-11-16T05:52:22.158Z,7.24
2022-11-16T05:53:25.369Z,7.24
2022-11-16T05:54:28.778Z,7.23
2022-11-16T05:55:31.117Z,7.24
2022-11-16T05:56:35.083Z,7.24
2022-11-16T05:57:37.870Z,7.24
2022-11-16T05:58:41.702Z,7.23
2022-11-16T05:59:45.071Z,7.22
2022-11-16T06:00:47.572Z,7.21
2022-11-16T06:01:52.928Z,7.19
2022-11-16T06:02:55.749Z,7.18
2022-11-16T06:04:04.381Z,7.18
2022-11-16T06:05:09.865Z,7.18
2022-11-16T06:06:12.167Z,7.18
2022-11-16T06:07:15.480Z,7.17
2022-11-16T06:08:19.228Z,7.16
2022-11-16T06:09:24.560Z,7.16
2022-11-16T06:10:27.049Z,7.16
2022-11-16T06:11:35.476Z,7.15
2022-11-16T06:12:38.804Z,7.16
2022-11-16T06:13:42.278Z,7.15
2022-11-16T06:14:45.672Z,7.15
2022-11-16T06:15:53.227Z,7.15
2022-11-16T06:16:56.504Z,7.15
2022-11-16T06:17:58.609Z,7.16
2022-11-16T06:19:01.915Z,7.16
2022-11-16T06:20:04.459Z,7.16
2022-11-16T06:21:09.063Z,7.17
2022-11-16T06:22:11.276Z,7.17
2022-11-16T06:23:14.513Z,7.18
2022-11-16T06:24:19.064Z,7.18
2022-11-16T06:25:21.391Z,7.18
2022-11-16T06:26:24.564Z,7.18
2022-11-16T06:27:26.812Z,7.17
2022-11-16T06:28:30.236Z,7.19
2022-11-16T06:29:33.433Z,7.19
2022-11-16T06:30:35.588Z,7.20
2022-11-16T06:31:39.751Z,7.20
2022-11-16T06:32:42.468Z,7.20
2022-11-16T06:33:46.109Z,7.16
2022-11-16T06:34:54.694Z,7.19
2022-11-16T06:35:57.970Z,7.20
2022-11-16T06:37:01.422Z,7.20
2022-11-16T06:38:04.058Z,7.18
2022-11-16T06:39:07.227Z,7.21
2022-11-16T06:40:13.574Z,7.21
2022-11-16T06:41:19.812Z,7.21
2022-11-16T06:42:24.469Z,7.22
2022-11-16T06:43:29.605Z,7.22
2022-11-16T06:44:31.777Z,7.22
2022-11-16T06:45:38.028Z,7.22
2022-11-16T06:46:41.608Z,7.23
2022-11-16T06:47:43.813Z,7.22
2022-11-16T06:48:47.649Z,7.22
2022-11-16T06:49:49.846Z,7.23
2022-11-16T06:50:57.488Z,7.24
2022-11-16T06:51:59.777Z,7.23
2022-11-16T06:53:03.041Z,7.24
2022-11-16T06:54:06.300Z,7.25
2022-11-16T06:55:10.345Z,7.25
2022-11-16T06:56:15.546Z,7.24
2022-11-16T06:57:24.066Z,7.25
2022-11-16T06:58:27.486Z,7.26
2022-11-16T06:59:30.772Z,7.26
2022-11-16T07:00:33.223Z,7.26
2022-11-16T07:01:37.128Z,7.26
2022-11-16T07:02:45.466Z,7.27
2022-11-16T07:03:51.965Z,7.26
2022-11-16T07:04:55.426Z,7.27
2022-11-16T07:06:05.967Z,7.25
2022-11-16T07:07:08.228Z,7.27
2022-11-16T07:08:13.408Z,7.26
2022-11-16T07:09:15.923Z,7.28
2022-11-16T07:10:19.906Z,7.28
2022-11-16T07:11:25.178Z,7.29
2022-11-16T07:12:27.856Z,7.29
2022-11-16T07:13:33.811Z,7.29
2022-11-16T07:14:36.023Z,7.29
2022-11-16T07:15:41.118Z,7.30
2022-11-16T07:16:44.269Z,7.29
2022-11-16T07:17:48.075Z,7.28
2022-11-16T07:18:51.247Z,7.29
2022-11-16T07:19:53.482Z,7.29
2022-11-16T07:20:56.740Z,7.28
2022-11-16T07:21:59.897Z,7.29
2022-11-16T07:23:04.327Z,7.29
2022-11-16T07:24:07.662Z,7.26
2022-11-16T07:25:11.432Z,7.28
2022-11-16T07:26:13.970Z,7.27
2022-11-16T07:27:25.583Z,7.27
2022-11-16T07:28:29.571Z,7.27
2022-11-16T07:29:33.857Z,7.27
2022-11-16T07:30:55.539Z,7.29
2022-11-16T07:32:04.008Z,7.29
2022-11-16T07:33:30.472Z,7.29
2022-11-16T07:34:39.693Z,7.30
2022-11-16T07:35:45.014Z,7.29
2022-11-16T07:36:48.354Z,7.30
2022-11-16T07:37:52.837Z,7.31
2022-11-16T07:38:56.463Z,7.31
2022-11-16T07:40:00.663Z,7.27
2022-11-16T07:41:06.589Z,7.32
2022-11-16T07:42:13.134Z,7.31
2022-11-16T07:43:53.192Z,7.31
2022-11-16T07:45:01.412Z,7.30
2022-11-16T07:46:28.239Z,7.31
2022-11-16T07:47:27.338Z,7.33
2022-11-16T07:48:30.091Z,7.34
2022-11-16T07:49:56.219Z,7.35
2022-11-16T07:51:02.911Z,7.35
2022-11-16T07:52:09.783Z,7.36
2022-11-16T07:53:39.286Z,7.37
2022-11-16T07:54:41.508Z,7.37
2022-11-16T07:55:45.007Z,7.37
2022-11-16T07:56:49.723Z,7.39
2022-11-16T07:57:53.615Z,7.39
2022-11-16T07:58:59.926Z,7.37
2022-11-16T08:00:05.646Z,7.39
2022-11-16T08:01:19.449Z,7.39
2022-11-16T08:02:24.427Z,7.40
2022-11-16T08:03:29.105Z,7.40
2022-11-16T08:04:33.660Z,7.40
2022-11-16T08:05:36.160Z,7.40
2022-11-16T08:06:39.730Z,7.41
2022-11-16T08:07:43.096Z,7.43
2022-11-16T08:08:45.619Z,7.44
2022-11-16T08:09:50.051Z,7.45
2022-11-16T08:10:52.598Z,7.47
2022-11-16T08:11:55.853Z,7.45
2022-11-16T08:13:00.067Z,7.47
2022-11-16T08:14:03.938Z,7.46
2022-11-16T08:15:08.091Z,7.44
2022-11-16T08:16:13.586Z,7.44
2022-11-16T08:17:17.126Z,7.45
2022-11-16T08:18:20.106Z,7.44
2022-11-16T08:19:23.694Z,7.45
2022-11-16T08:20:25.910Z,7.44
2022-11-16T08:21:29.212Z,7.44
2022-11-16T08:22:32.470Z,7.44
2022-11-16T08:23:35.284Z,7.44
2022-11-16T08:24:39.435Z,7.45
2022-11-16T08:25:41.798Z,7.46
2022-11-16T08:26:44.982Z,7.46
2022-11-16T08:27:49.520Z,7.46
2022-11-16T08:28:56.698Z,7.47
2022-11-16T08:30:09.887Z,7.45
2022-11-16T08:31:16.076Z,7.45
2022-11-16T08:32:20.882Z,7.44
2022-11-16T08:33:24.476Z,7.44
2022-11-16T08:34:27.672Z,7.41
2022-11-16T08:35:35.396Z,7.44
2022-11-16T08:36:38.831Z,7.44
2022-11-16T08:37:42.423Z,7.43
2022-11-16T08:38:45.028Z,7.41
2022-11-16T08:39:48.509Z,7.42
2022-11-16T08:40:50.951Z,7.42
2022-11-16T08:41:54.322Z,7.41
2022-11-16T08:42:57.164Z,7.41
2022-11-16T08:44:01.947Z,7.41
2022-11-16T08:45:08.056Z,7.41
2022-11-16T08:46:12.169Z,7.43
2022-11-16T08:47:17.173Z,7.43
2022-11-16T08:48:26.257Z,7.45
2022-11-16T08:49:29.982Z,7.46
2022-11-16T08:50:44.144Z,7.46
2022-11-16T08:51:56.763Z,7.48
2022-11-16T08:52:59.642Z,7.50
2022-11-16T08:54:04.011Z,7.51
2022-11-16T08:55:07.615Z,7.52
2022-11-16T08:56:13.774Z,7.52
2022-11-16T08:57:18.076Z,7.53
2022-11-16T08:58:23.374Z,7.52
2022-11-16T08:59:26.659Z,7.52
2022-11-16T09:00:33.463Z,7.49
2022-11-16T09:01:36.992Z,7.53
2022-11-16T09:02:39.452Z,7.51
2022-11-16T09:03:43.028Z,7.49
2022-11-16T09:04:45.295Z,7.48
2022-11-16T09:05:48.517Z,7.47
2022-11-16T09:06:53.091Z,7.48
2022-11-16T09:07:56.311Z,7.46
2022-11-16T09:08:59.654Z,7.45
2022-11-16T09:10:01.865Z,7.45
2022-11-16T09:11:05.575Z,7.45
2022-11-16T09:12:08.960Z,7.46
2022-11-16T09:13:11.160Z,7.45
2022-11-16T09:14:14.461Z,7.45
2022-11-16T09:15:16.663Z,7.46
2022-11-16T09:16:22.685Z,7.46
2022-11-16T09:17:24.894Z,7.47
2022-11-16T09:18:28.517Z,7.46
2022-11-16T09:19:30.658Z,7.46
2022-11-16T09:20:34.259Z,7.46
2022-11-16T09:21:37.767Z,7.46
2022-11-16T09:22:39.942Z,7.48
2022-11-16T09:23:43.138Z,7.48
2022-11-16T09:24:46.336Z,7.49
2022-11-16T09:25:48.632Z,7.50
2022-11-16T09:26:51.822Z,7.50
2022-11-16T09:27:54.806Z,7.48
2022-11-16T09:29:00.169Z,7.47
2022-11-16T09:30:02.603Z,7.45
2022-11-16T09:31:06.132Z,7.43
2022-11-16T09:32:10.724Z,7.41
2022-11-16T09:33:13.420Z,7.40
2022-11-16T09:34:17.164Z,7.39
2022-11-16T09:35:20.902Z,7.36
2022-11-16T09:36:24.134Z,7.36
2022-11-16T09:37:26.351Z,7.36
2022-11-16T09:38:40.641Z,7.34
2022-11-16T09:39:52.912Z,7.34
2022-11-16T09:40:56.632Z,7.33
2022-11-16T09:42:08.442Z,7.35
2022-11-16T09:43:19.547Z,7.36
2022-11-16T09:44:41.801Z,7.36
2022-11-16T09:45:54.118Z,7.35
2022-11-16T09:46:58.667Z,7.34
2022-11-16T09:48:06.977Z,7.35
2022-11-16T09:49:17.684Z,7.33
2022-11-16T09:50:42.360Z,7.32
2022-11-16T09:51:49.536Z,7.30
2022-11-16T09:52:55.617Z,7.30
2022-11-16T09:54:03.519Z,7.29
2022-11-16T09:55:24.653Z,7.29
2022-11-16T09:56:30.275Z,7.27
2022-11-16T09:57:37.567Z,7.28
2022-11-16T09:58:47.175Z,7.27
2022-11-16T09:59:55.889Z,7.25
2022-11-16T10:01:04.860Z,7.24
2022-11-16T10:02:20.762Z,7.21
2022-11-16T10:03:25.679Z,7.19
2022-11-16T10:04:39.273Z,7.18
2022-11-16T10:05:46.684Z,7.17
2022-11-16T10:06:56.544Z,7.16
2022-11-16T10:08:06.607Z,7.16
2022-11-16T10:09:12.722Z,7.17
2022-11-16T10:10:18.180Z,7.16
2022-11-16T10:11:45.373Z,7.17
2022-11-16T10:12:57.009Z,7.17
2022-11-16T10:14:12.731Z,7.18
2022-11-16T10:15:36.406Z,7.20
2022-11-16T10:16:46.099Z,7.20
2022-11-16T10:18:00.485Z,7.21
2022-11-16T10:19:14.580Z,7.20
2022-11-16T10:20:39.026Z,7.20
2022-11-16T10:21:56.490Z,7.21
2022-11-16T10:23:06.477Z,7.21
2022-11-16T10:24:26.398Z,7.20
2022-11-16T10:25:37.419Z,7.20
2022-11-16T10:26:44.704Z,7.20
2022-11-16T10:28:04.678Z,7.21
2022-11-16T10:29:24.299Z,7.21
2022-11-16T10:30:27.572Z,7.21
2022-11-16T10:31:48.619Z,7.21
2022-11-16T10:32:57.023Z,7.22
2022-11-16T10:34:01.832Z,7.22
2022-11-16T10:35:14.996Z,7.24
2022-11-16T10:36:18.445Z,7.24
2022-11-16T10:37:23.264Z,7.16
2022-11-16T10:38:29.089Z,7.25
2022-11-16T10:39:34.376Z,7.26
2022-11-16T10:40:39.283Z,7.26
2022-11-16T10:41:43.876Z,7.25
2022-11-16T10:42:52.724Z,7.24
2022-11-16T10:43:59.147Z,7.24
2022-11-16T10:45:12.605Z,7.25
2022-11-16T10:46:22.046Z,7.26
2022-11-16T10:47:34.762Z,7.24
2022-11-16T10:48:41.312Z,7.25
2022-11-16T10:49:53.248Z,7.24
2022-11-16T10:50:58.283Z,7.24
2022-11-16T10:52:00.474Z,7.26
2022-11-16T10:53:03.746Z,7.25
2022-11-16T10:54:14.325Z,7.24
2022-11-16T10:55:24.448Z,7.23
2022-11-16T10:56:31.937Z,7.22
2022-11-16T10:57:57.029Z,7.22
2022-11-16T10:59:01.005Z,7.23
2022-11-16T11:00:09.788Z,7.16
2022-11-16T11:01:29.892Z,7.22
2022-11-16T11:02:35.984Z,7.22
2022-11-16T11:03:38.236Z,7.22
2022-11-16T11:04:41.519Z,7.21
2022-11-16T11:05:52.826Z,7.21
2022-11-16T11:06:58.349Z,7.23
2022-11-16T11:08:03.485Z,7.23
2022-11-16T11:09:16.909Z,7.23
2022-11-16T11:10:29.240Z,7.21
2022-11-16T11:11:49.704Z,7.23
2022-11-16T11:13:05.041Z,7.23
2022-11-16T11:14:12.574Z,7.24
2022-11-16T11:15:25.968Z,7.25
2022-11-16T11:16:29.775Z,7.27
2022-11-16T11:17:33.725Z,7.27
2022-11-16T11:18:36.924Z,7.27
2022-11-16T11:19:39.128Z,7.26
2022-11-16T11:20:45.315Z,7.26
2022-11-16T11:21:49.338Z,7.25
2022-11-16T11:22:57.412Z,7.24
2022-11-16T11:24:29.442Z,7.25
2022-11-16T11:25:30.062Z,7.26
2022-11-16T11:26:37.497Z,7.26
2022-11-16T11:27:41.065Z,7.26
2022-11-16T11:28:49.083Z,7.25
2022-11-16T11:29:58.605Z,7.28
2022-11-16T11:31:05.453Z,7.27
2022-11-16T11:32:20.765Z,7.27
2022-11-16T11:33:29.861Z,7.27
2022-11-16T11:34:40.304Z,7.27
2022-11-16T11:35:43.087Z,7.30
2022-11-16T11:36:50.421Z,7.29
2022-11-16T11:37:57.836Z,7.30
2022-11-16T11:39:03.372Z,7.30
2022-11-16T11:40:21.915Z,7.29
2022-11-16T11:41:24.439Z,7.30
2022-11-16T11:42:27.670Z,7.30
2022-11-16T11:43:31.096Z,7.30
2022-11-16T11:44:42.661Z,7.31
2022-11-16T11:45:50.983Z,7.32
2022-11-16T11:47:50.290Z,7.34
2022-11-16T11:48:35.707Z,7.34
2022-11-16T11:49:42.176Z,7.34
2022-11-16T11:50:51.165Z,7.35
2022-11-16T11:52:00.421Z,7.38
2022-11-16T11:53:08.799Z,7.38
2022-11-16T11:54:22.181Z,7.38
2022-11-16T11:55:24.446Z,7.40
2022-11-16T11:56:30.759Z,7.42
2022-11-16T11:57:36.885Z,7.40
2022-11-16T11:58:41.996Z,7.42
2022-11-16T11:59:45.261Z,7.43
2022-11-16T12:00:56.066Z,7.43
2022-11-16T12:02:11.330Z,7.44
2022-11-16T12:03:40.012Z,7.45
2022-11-16T12:05:14.975Z,7.48
2022-11-16T12:06:22.843Z,7.48
2022-11-16T12:07:51.108Z,7.51
2022-11-16T12:09:30.027Z,7.55
2022-11-16T12:10:42.270Z,7.57
2022-11-16T12:12:01.757Z,7.58
2022-11-16T12:13:25.299Z,7.59
2022-11-16T12:14:41.636Z,7.60
2022-11-16T12:15:55.151Z,7.60
2022-11-16T12:17:02.830Z,7.62
2022-11-16T12:18:18.400Z,7.62
2022-11-16T12:19:37.691Z,7.63
2022-11-16T12:20:47.572Z,7.65
2022-11-16T12:22:01.809Z,7.65
2022-11-16T12:23:22.960Z,7.64
2022-11-16T12:24:43.805Z,7.65
2022-11-16T12:25:51.055Z,7.66
2022-11-16T12:27:03.421Z,7.65
2022-11-16T12:28:22.804Z,7.66
2022-11-16T12:29:26.841Z,7.66
2022-11-16T12:30:31.309Z,7.65
2022-11-16T12:32:01.218Z,7.67
2022-11-16T12:33:22.507Z,7.67
2022-11-16T12:34:41.199Z,7.66
2022-11-16T12:35:55.409Z,7.68
2022-11-16T12:37:04.621Z,7.69
2022-11-16T12:38:29.829Z,7.69
2022-11-16T12:39:36.455Z,7.69
2022-11-16T12:40:58.274Z,7.68
2022-11-16T12:42:28.066Z,7.68
2022-11-16T12:43:42.273Z,7.63
2022-11-16T12:45:02.017Z,7.66
2022-11-16T12:46:14.133Z,7.67
2022-11-16T12:47:28.081Z,7.67
2022-11-16T12:49:03.958Z,7.66
2022-11-16T12:50:42.676Z,7.65
2022-11-16T12:52:13.846Z,7.68
2022-11-16T12:53:36.562Z,7.67
2022-11-16T12:55:24.021Z,7.67
2022-11-16T12:56:30.862Z,7.66
2022-11-16T12:57:44.433Z,7.67
2022-11-16T12:59:12.889Z,7.67
2022-11-16T13:00:17.770Z,7.68
2022-11-16T13:01:30.781Z,7.68
2022-11-16T13:02:56.393Z,7.69
2022-11-16T13:04:06.330Z,7.70
2022-11-16T13:05:19.159Z,7.71
2022-11-16T13:06:33.564Z,7.73
2022-11-16T13:07:42.848Z,7.72
2022-11-16T13:08:52.023Z,7.73
2022-11-16T13:10:00.804Z,7.73
2022-11-16T13:11:12.626Z,7.72
2022-11-16T13:12:19.865Z,7.73
2022-11-16T13:13:36.260Z,7.73
2022-11-16T13:14:42.988Z,7.73
2022-11-16T13:15:49.300Z,7.74
2022-11-16T13:16:56.234Z,7.75
2022-11-16T13:18:02.010Z,7.76
2022-11-16T13:19:08.091Z,7.77
2022-11-16T13:20:25.490Z,7.77
2022-11-16T13:21:50.454Z,7.78
2022-11-16T13:23:00.313Z,7.78
2022-11-16T13:24:15.436Z,7.77
2022-11-16T13:25:25.651Z,7.77
2022-11-16T13:26:35.802Z,7.78
2022-11-16T13:27:46.528Z,7.79
2022-11-16T13:29:01.454Z,7.79
2022-11-16T13:30:14.748Z,7.79
2022-11-16T13:31:21.671Z,7.79
2022-11-16T13:32:29.727Z,7.79
2022-11-16T13:33:46.167Z,7.79
2022-11-16T13:34:53.684Z,7.77
2022-11-16T13:35:55.874Z,7.77
2022-11-16T13:36:59.126Z,7.77
2022-11-16T13:38:02.353Z,7.76
2022-11-16T13:39:05.752Z,7.77
2022-11-16T13:40:23.401Z,7.76
2022-11-16T13:41:31.609Z,7.75
2022-11-16T13:42:38.352Z,7.74
2022-11-16T13:43:48.267Z,7.74
2022-11-16T13:44:54.443Z,7.74
2022-11-16T13:46:00.117Z,7.73
2022-11-16T13:47:05.575Z,7.73
2022-11-16T13:48:25.100Z,7.74
2022-11-16T13:49:33.086Z,7.75
2022-11-16T13:50:39.126Z,7.75
2022-11-16T13:51:52.915Z,7.76
2022-11-16T13:54:45.274Z,7.77
2022-11-16T13:55:56.978Z,7.77
2022-11-16T13:57:00.968Z,7.79
2022-11-16T13:58:06.831Z,7.79
2022-11-16T13:59:16.999Z,7.79
2022-11-16T14:00:23.277Z,7.79
2022-11-16T14:01:27.092Z,7.78
2022-11-16T14:02:39.421Z,7.76
2022-11-16T14:03:44.872Z,7.74
2022-11-16T14:05:02.996Z,7.73
2022-11-16T14:06:38.509Z,7.71
2022-11-16T14:07:46.699Z,7.70
2022-11-16T14:08:55.097Z,7.68
2022-11-16T14:10:01.746Z,7.68
2022-11-16T14:11:35.188Z,7.66
2022-11-16T14:13:00.593Z,7.65
2022-11-16T14:14:10.565Z,7.64
2022-11-16T14:15:17.275Z,7.60
2022-11-16T14:16:53.779Z,7.61
2022-11-16T14:18:41.115Z,7.61
2022-11-16T14:19:58.271Z,7.61
2022-11-16T14:21:17.934Z,7.59
2022-11-16T14:22:46.755Z,7.57
2022-11-16T14:24:10.160Z,7.57
2022-11-16T14:25:37.716Z,7.54
2022-11-16T14:27:01.065Z,7.52
2022-11-16T14:28:52.178Z,7.52
2022-11-16T14:30:05.664Z,7.52
2022-11-16T14:31:22.479Z,7.52
2022-11-16T14:32:28.644Z,7.53
2022-11-16T14:33:35.157Z,7.54
2022-11-16T14:34:43.316Z,7.53
2022-11-16T14:35:52.566Z,7.51
2022-11-16T14:36:56.499Z,7.51
2022-11-16T14:38:01.281Z,7.51
2022-11-16T14:39:37.682Z,7.51
2022-11-16T14:40:46.147Z,7.51
2022-11-16T14:41:51.255Z,7.52
2022-11-16T14:43:15.811Z,7.52
2022-11-16T14:44:21.807Z,7.54
2022-11-16T14:45:28.421Z,7.54
2022-11-16T14:46:35.968Z,7.52
2022-11-16T14:47:40.936Z,7.51
2022-11-16T14:48:44.982Z,7.51
2022-11-16T14:49:49.349Z,7.51
2022-11-16T14:51:02.533Z,7.50
2022-11-16T14:52:08.385Z,7.47
2022-11-16T14:53:16.244Z,7.48
2022-11-16T14:54:26.585Z,7.47
2022-11-16T14:55:29.875Z,7.47
2022-11-16T14:56:32.078Z,7.47
2022-11-16T14:57:36.705Z,7.46
2022-11-16T14:58:39.837Z,7.42
2022-11-16T14:59:43.727Z,7.43
2022-11-16T15:00:53.952Z,7.43
2022-11-16T15:01:58.544Z,7.41
2022-11-16T15:03:04.343Z,7.41
2022-11-16T15:04:12.921Z,7.40
2022-11-16T15:05:19.277Z,7.37
2022-11-16T15:06:22.796Z,7.36
2022-11-16T15:07:28.458Z,7.36
2022-11-16T15:08:35.260Z,7.33
2022-11-16T15:09:41.904Z,7.33
2022-11-16T15:10:49.496Z,7.32
2022-11-16T15:12:13.977Z,7.30
2022-11-16T15:13:23.888Z,7.29
2022-11-16T15:14:30.140Z,7.27
2022-11-16T15:15:33.760Z,7.26